createdAt,value
2019-02-19T00:00:18.747Z,62.24
2019-02-19T00:00:44.853Z,62.15
2019-02-19T00:01:10.986Z,61.86
2019-02-19T00:01:37.125Z,62.05
2019-02-19T00:02:03.234Z,61.76
2019-02-19T00:02:29.368Z,62.05
2019-02-19T00:02:55.501Z,61.86
2019-02-19T00:03:21.666Z,61.76
2019-02-19T00:03:47.771Z,61.96
2019-02-19T00:04:13.905Z,61.96
2019-02-19T00:04:40.027Z,62.05
2019-02-19T00:05:06.144Z,61.96
2019-02-19T00:05:32.282Z,61.86
2019-02-19T00:05:58.387Z,62.05
2019-02-19T00:06:24.490Z,62.24
2019-02-19T00:06:50.600Z,61.96
2019-02-19T00:07:16.733Z,61.67
2019-02-19T00:07:42.839Z,61.76
2019-02-19T00:08:08.975Z,61.57
2019-02-19T00:08:35.087Z,61.96
2019-02-19T00:09:01.217Z,61.76
2019-02-19T00:09:27.344Z,62.05
2019-02-19T00:09:53.455Z,62.24
2019-02-19T00:10:19.564Z,62.05
2019-02-19T00:10:45.701Z,62.05
2019-02-19T00:11:11.798Z,62.43
2019-02-19T00:11:37.908Z,62.62
2019-02-19T00:12:04.029Z,62.72
2019-02-19T00:12:30.133Z,62.62
2019-02-19T00:12:56.268Z,62.34
2019-02-19T00:13:22.396Z,62.43
2019-02-19T00:13:48.510Z,62.34
2019-02-19T00:14:14.640Z,63
2019-02-19T00:14:40.742Z,62.91
2019-02-19T00:15:08.689Z,62.81
2019-02-19T00:15:34.003Z,62.81
2019-02-19T00:16:00.142Z,62.72
2019-02-19T00:16:26.258Z,62.91
2019-02-19T00:16:52.362Z,62.81
2019-02-19T00:17:18.468Z,62.72
2019-02-19T00:17:44.570Z,62.62
2019-02-19T00:18:10.676Z,62.81
2019-02-19T00:18:36.786Z,62.43
2019-02-19T00:19:02.885Z,62.62
2019-02-19T00:19:29.028Z,62.62
2019-02-19T00:19:55.136Z,62.81
2019-02-19T00:20:21.247Z,62.43
2019-02-19T00:20:47.348Z,63.29
2019-02-19T00:21:13.460Z,62.81
2019-02-19T00:21:39.565Z,63.1
2019-02-19T00:22:05.678Z,62.72
2019-02-19T00:22:31.780Z,63
2019-02-19T00:22:57.888Z,63.1
2019-02-19T00:23:23.991Z,62.72
2019-02-19T00:23:50.098Z,62.62
2019-02-19T00:24:16.236Z,63
2019-02-19T00:24:42.376Z,63.1
2019-02-19T00:25:08.513Z,63.1
2019-02-19T00:25:34.621Z,63
2019-02-19T00:26:00.723Z,62.62
2019-02-19T00:26:26.857Z,63.57
2019-02-19T00:26:53.011Z,62.81
2019-02-19T00:27:19.153Z,62.52
2019-02-19T00:27:45.270Z,63.1
2019-02-19T00:28:11.367Z,63.29
2019-02-19T00:28:37.478Z,63.29
2019-02-19T00:29:03.578Z,63.67
2019-02-19T00:29:29.689Z,62.62
2019-02-19T00:29:55.794Z,62.81
2019-02-19T00:30:21.906Z,63.29
2019-02-19T00:30:48.010Z,62.81
2019-02-19T00:31:14.122Z,63.2
2019-02-19T00:31:40.223Z,63.39
2019-02-19T00:32:06.337Z,63.67
2019-02-19T00:32:32.476Z,63.29
2019-02-19T00:32:58.578Z,63.29
2019-02-19T00:33:24.684Z,63.48
2019-02-19T00:33:50.791Z,63.48
2019-02-19T00:34:16.897Z,63.48
2019-02-19T00:34:43.011Z,63.48
2019-02-19T00:35:09.119Z,63.67
2019-02-19T00:35:35.256Z,63.57
2019-02-19T00:36:01.358Z,63.57
2019-02-19T00:36:27.465Z,63.29
2019-02-19T00:36:53.604Z,63.2
2019-02-19T00:37:19.734Z,63.2
2019-02-19T00:37:45.837Z,63.57
2019-02-19T00:38:11.945Z,63.2
2019-02-19T00:38:38.054Z,63.57
2019-02-19T00:39:04.162Z,63.48
2019-02-19T00:39:30.270Z,63.67
2019-02-19T00:39:56.373Z,63.57
2019-02-19T00:40:22.483Z,63.67
2019-02-19T00:40:48.592Z,63.86
2019-02-19T00:41:14.696Z,63.67
2019-02-19T00:41:40.806Z,63.76
2019-02-19T00:42:06.909Z,63.39
2019-02-19T00:42:33.015Z,63.48
2019-02-19T00:42:59.125Z,64.24
2019-02-19T00:43:25.221Z,63.76
2019-02-19T00:43:51.330Z,64.05
2019-02-19T00:44:17.437Z,64.05
2019-02-19T00:44:43.541Z,64.15
2019-02-19T00:45:16.422Z,64.24
2019-02-19T00:45:38.015Z,63.86
2019-02-19T00:46:04.126Z,63.48
2019-02-19T00:46:30.253Z,63.48
2019-02-19T00:46:56.353Z,63.39
2019-02-19T00:47:22.462Z,63.76
2019-02-19T00:47:48.620Z,63.67
2019-02-19T00:48:14.724Z,64.15
2019-02-19T00:48:40.828Z,64.24
2019-02-19T00:49:06.942Z,64.15
2019-02-19T00:49:33.042Z,64.05
2019-02-19T00:49:59.149Z,64.15
2019-02-19T00:50:25.287Z,64.24
2019-02-19T00:50:51.393Z,64.05
2019-02-19T00:51:17.498Z,63.86
2019-02-19T00:51:43.603Z,64.15
2019-02-19T00:52:09.714Z,63.96
2019-02-19T00:52:35.846Z,63.76
2019-02-19T00:53:01.947Z,63.86
2019-02-19T00:53:28.056Z,63.76
2019-02-19T00:53:54.164Z,64.72
2019-02-19T00:54:20.270Z,63.96
2019-02-19T00:54:46.410Z,64.43
2019-02-19T00:55:12.544Z,64.72
2019-02-19T00:55:38.656Z,64.62
2019-02-19T00:56:04.754Z,64.62
2019-02-19T00:56:30.860Z,64.62
2019-02-19T00:56:56.973Z,64.62
2019-02-19T00:57:23.084Z,64.34
2019-02-19T00:57:49.186Z,64.05
2019-02-19T00:58:16.286Z,64.43
2019-02-19T00:58:42.393Z,64.62
2019-02-19T00:59:08.497Z,64.72
2019-02-19T00:59:34.661Z,64.43
2019-02-19T01:00:00.763Z,64.43
2019-02-19T01:00:26.899Z,64.53
2019-02-19T01:00:53.006Z,64.43
2019-02-19T01:01:19.113Z,64.43
2019-02-19T01:01:45.217Z,64.72
2019-02-19T01:02:11.348Z,64.15
2019-02-19T01:02:37.450Z,64.53
2019-02-19T01:03:03.570Z,64.43
2019-02-19T01:03:29.667Z,64.72
2019-02-19T01:03:55.807Z,64.34
2019-02-19T01:04:21.911Z,64.43
2019-02-19T01:04:48.023Z,64.24
2019-02-19T01:05:14.134Z,64.24
2019-02-19T01:05:40.269Z,64.43
2019-02-19T01:06:06.371Z,64.34
2019-02-19T01:06:32.505Z,64.43
2019-02-19T01:06:58.639Z,64.34
2019-02-19T01:07:24.766Z,64.62
2019-02-19T01:07:50.874Z,64.62
2019-02-19T01:08:16.981Z,64.62
2019-02-19T01:08:43.091Z,64.53
2019-02-19T01:09:09.197Z,64.62
2019-02-19T01:09:35.325Z,64.43
2019-02-19T01:10:01.443Z,64.43
2019-02-19T01:10:27.541Z,64.62
2019-02-19T01:10:53.650Z,64.43
2019-02-19T01:11:19.753Z,64.62
2019-02-19T01:11:45.863Z,64.43
2019-02-19T01:12:11.967Z,64.43
2019-02-19T01:12:38.074Z,64.43
2019-02-19T01:13:04.215Z,64.43
2019-02-19T01:13:30.347Z,64.62
2019-02-19T01:13:56.453Z,64.15
2019-02-19T01:14:22.594Z,64.34
2019-02-19T01:14:48.704Z,64.24
2019-02-19T01:15:14.809Z,64.43
2019-02-19T01:15:41.911Z,64.53
2019-02-19T01:16:08.014Z,64.15
2019-02-19T01:16:34.121Z,64.43
2019-02-19T01:17:00.231Z,64.24
2019-02-19T01:17:26.341Z,64.34
2019-02-19T01:17:52.443Z,64.43
2019-02-19T01:18:18.554Z,64.43
2019-02-19T01:18:44.655Z,64.43
2019-02-19T01:19:10.761Z,64.72
2019-02-19T01:19:36.870Z,64.81
2019-02-19T01:20:02.970Z,64.72
2019-02-19T01:20:29.083Z,64.62
2019-02-19T01:20:55.222Z,64.69
2019-02-19T01:21:21.349Z,64.59
2019-02-19T01:21:47.460Z,64.62
2019-02-19T01:22:13.563Z,64.62
2019-02-19T01:22:39.668Z,64.62
2019-02-19T01:23:05.804Z,64.81
2019-02-19T01:23:31.912Z,65.39
2019-02-19T01:23:58.018Z,65.29
2019-02-19T01:24:24.118Z,65.2
2019-02-19T01:24:50.258Z,64.91
2019-02-19T01:25:16.366Z,64.91
2019-02-19T01:25:42.473Z,64.72
2019-02-19T01:26:08.575Z,64.72
2019-02-19T01:26:34.676Z,64.91
2019-02-19T01:27:00.787Z,65.1
2019-02-19T01:27:26.895Z,65.58
2019-02-19T01:27:53.034Z,65.55
2019-02-19T01:28:19.139Z,65.55
2019-02-19T01:28:45.252Z,65.48
2019-02-19T01:29:11.352Z,65.39
2019-02-19T01:29:37.480Z,65.45
2019-02-19T01:30:03.585Z,65.58
2019-02-19T01:30:29.685Z,65.58
2019-02-19T01:30:55.805Z,65.48
2019-02-19T01:31:21.936Z,65.29
2019-02-19T01:31:48.075Z,65.1
2019-02-19T01:32:14.197Z,65.2
2019-02-19T01:32:40.325Z,65.48
2019-02-19T01:33:06.409Z,65
2019-02-19T01:33:32.512Z,65.1
2019-02-19T01:33:58.622Z,65.48
2019-02-19T01:34:24.756Z,65.39
2019-02-19T01:34:51.927Z,65.39
2019-02-19T01:35:18.038Z,65.45
2019-02-19T01:35:44.140Z,65.55
2019-02-19T01:36:10.276Z,66.15
2019-02-19T01:36:36.383Z,65.26
2019-02-19T01:37:02.480Z,66.05
2019-02-19T01:37:28.622Z,65.86
2019-02-19T01:37:54.731Z,65.96
2019-02-19T01:38:20.841Z,65.77
2019-02-19T01:38:46.938Z,65.96
2019-02-19T01:39:13.046Z,65.58
2019-02-19T01:39:39.152Z,65.86
2019-02-19T01:40:05.260Z,65.67
2019-02-19T01:40:31.360Z,65.55
2019-02-19T01:40:57.470Z,65.64
2019-02-19T01:41:23.576Z,65.64
2019-02-19T01:41:49.712Z,66.11
2019-02-19T01:42:15.828Z,65.64
2019-02-19T01:42:41.926Z,65.83
2019-02-19T01:43:08.045Z,65.83
2019-02-19T01:43:34.172Z,65.64
2019-02-19T01:44:00.340Z,65.67
2019-02-19T01:44:26.444Z,65.67
2019-02-19T01:44:52.576Z,65.64
2019-02-19T01:45:18.708Z,65.92
2019-02-19T01:45:45.807Z,66.02
2019-02-19T01:46:11.917Z,65.83
2019-02-19T01:46:38.024Z,66.5
2019-02-19T01:47:04.124Z,66.31
2019-02-19T01:47:30.280Z,66.59
2019-02-19T01:47:56.391Z,66.5
2019-02-19T01:48:22.490Z,66.78
2019-02-19T01:48:48.601Z,66.5
2019-02-19T01:49:14.709Z,66.5
2019-02-19T01:49:40.820Z,66.4
2019-02-19T01:50:06.926Z,66.02
2019-02-19T01:50:33.036Z,66.21
2019-02-19T01:50:59.142Z,67.16
2019-02-19T01:51:25.273Z,67.07
2019-02-19T01:51:51.379Z,66.78
2019-02-19T01:52:17.481Z,67.07
2019-02-19T01:52:43.609Z,66.69
2019-02-19T01:53:09.715Z,66.78
2019-02-19T01:53:35.819Z,66.88
2019-02-19T01:54:01.917Z,66.78
2019-02-19T01:54:28.030Z,66.69
2019-02-19T01:54:54.139Z,66.97
2019-02-19T01:55:20.265Z,67.07
2019-02-19T01:55:46.374Z,66.88
2019-02-19T01:56:12.503Z,66.78
2019-02-19T01:56:38.635Z,66.69
2019-02-19T01:57:04.766Z,66.97
2019-02-19T01:57:30.869Z,67.26
2019-02-19T01:57:56.978Z,67.16
2019-02-19T01:58:23.088Z,67.26
2019-02-19T01:58:49.191Z,67.26
2019-02-19T01:59:15.295Z,67.16
2019-02-19T01:59:41.431Z,67.16
2019-02-19T02:00:07.538Z,66.97
2019-02-19T02:00:33.639Z,67.16
2019-02-19T02:00:59.742Z,67.45
2019-02-19T02:01:25.881Z,67.74
2019-02-19T02:01:51.984Z,67.74
2019-02-19T02:02:18.084Z,67.74
2019-02-19T02:02:44.222Z,67.93
2019-02-19T02:03:10.328Z,67.83
2019-02-19T02:03:36.440Z,67.83
2019-02-19T02:04:02.544Z,67.74
2019-02-19T02:04:28.707Z,68.21
2019-02-19T02:04:54.813Z,68.3
2019-02-19T02:05:20.954Z,68.5
2019-02-19T02:05:47.090Z,68.21
2019-02-19T02:06:13.196Z,68.69
2019-02-19T02:06:39.329Z,68.12
2019-02-19T02:07:05.466Z,67.64
2019-02-19T02:07:31.572Z,67.55
2019-02-19T02:07:57.712Z,67.74
2019-02-19T02:08:23.846Z,67.74
2019-02-19T02:08:49.944Z,67.83
2019-02-19T02:09:16.049Z,67.83
2019-02-19T02:09:42.184Z,67.83
2019-02-19T02:10:08.293Z,67.93
2019-02-19T02:10:34.406Z,67.35
2019-02-19T02:11:00.506Z,67.64
2019-02-19T02:11:26.623Z,67.64
2019-02-19T02:11:52.723Z,67.45
2019-02-19T02:12:18.831Z,67.74
2019-02-19T02:12:44.974Z,67.55
2019-02-19T02:13:11.076Z,67.93
2019-02-19T02:13:37.185Z,68.59
2019-02-19T02:14:03.284Z,68.3
2019-02-19T02:14:29.387Z,68.4
2019-02-19T02:14:55.490Z,68.21
2019-02-19T02:15:21.603Z,68.4
2019-02-19T02:15:48.694Z,68.12
2019-02-19T02:16:14.831Z,68.21
2019-02-19T02:16:40.937Z,68.5
2019-02-19T02:17:07.038Z,68.59
2019-02-19T02:17:33.191Z,68.59
2019-02-19T02:17:59.277Z,68.21
2019-02-19T02:18:25.416Z,68.5
2019-02-19T02:18:51.524Z,68.5
2019-02-19T02:19:17.624Z,68.5
2019-02-19T02:19:43.730Z,68.21
2019-02-19T02:20:09.834Z,68.59
2019-02-19T02:20:35.936Z,68.5
2019-02-19T02:21:02.050Z,68.3
2019-02-19T02:21:28.174Z,68.78
2019-02-19T02:21:54.278Z,68.78
2019-02-19T02:22:20.412Z,68.5
2019-02-19T02:22:46.517Z,68.69
2019-02-19T02:23:12.625Z,68.69
2019-02-19T02:23:38.727Z,68.78
2019-02-19T02:24:04.831Z,68.78
2019-02-19T02:24:30.961Z,68.4
2019-02-19T02:24:57.069Z,68.78
2019-02-19T02:25:23.179Z,68.78
2019-02-19T02:25:49.311Z,68.4
2019-02-19T02:26:15.413Z,68.78
2019-02-19T02:26:41.525Z,69.26
2019-02-19T02:27:07.627Z,69.07
2019-02-19T02:27:33.733Z,68.98
2019-02-19T02:27:59.843Z,69.17
2019-02-19T02:28:25.949Z,69.26
2019-02-19T02:28:52.060Z,69.54
2019-02-19T02:29:18.192Z,69.45
2019-02-19T02:29:44.326Z,69.26
2019-02-19T02:30:10.441Z,69.35
2019-02-19T02:30:36.583Z,69.54
2019-02-19T02:31:02.738Z,69.35
2019-02-19T02:31:28.902Z,69.45
2019-02-19T02:31:55.003Z,69.54
2019-02-19T02:32:21.121Z,69.45
2019-02-19T02:32:47.275Z,69.64
2019-02-19T02:33:13.378Z,69.35
2019-02-19T02:33:39.510Z,69.45
2019-02-19T02:34:05.622Z,69.17
2019-02-19T02:34:31.759Z,69.35
2019-02-19T02:34:57.948Z,69.64
2019-02-19T02:35:24.086Z,70.21
2019-02-19T02:35:50.207Z,69.64
2019-02-19T02:36:16.360Z,70.02
2019-02-19T02:36:42.500Z,69.93
2019-02-19T02:37:08.603Z,69.93
2019-02-19T02:37:34.748Z,69.93
2019-02-19T02:38:00.850Z,70.12
2019-02-19T02:38:26.956Z,70.12
2019-02-19T02:38:53.099Z,70.59
2019-02-19T02:39:19.203Z,70.59
2019-02-19T02:39:45.307Z,70.59
2019-02-19T02:40:11.408Z,70.78
2019-02-19T02:40:37.522Z,70.5
2019-02-19T02:41:04.608Z,70.78
2019-02-19T02:41:30.842Z,70.78
2019-02-19T02:41:56.946Z,70.88
2019-02-19T02:42:23.039Z,71.55
2019-02-19T02:42:49.137Z,71.26
2019-02-19T02:43:15.263Z,71.26
2019-02-19T02:43:41.383Z,71.36
2019-02-19T02:44:07.518Z,71.36
2019-02-19T02:44:33.650Z,71.17
2019-02-19T02:44:59.762Z,70.88
2019-02-19T02:45:25.893Z,71.17
2019-02-19T02:45:53.854Z,71.17
2019-02-19T02:46:20.023Z,71.07
2019-02-19T02:46:46.126Z,71.55
2019-02-19T02:47:12.230Z,71.83
2019-02-19T02:47:38.337Z,71.55
2019-02-19T02:48:04.447Z,71.83
2019-02-19T02:48:30.577Z,71.64
2019-02-19T02:48:56.695Z,71.93
2019-02-19T02:49:22.798Z,71.83
2019-02-19T02:49:48.902Z,71.83
2019-02-19T02:50:15.060Z,71.83
2019-02-19T02:50:41.162Z,71.55
2019-02-19T02:51:07.274Z,71.73
2019-02-19T02:51:33.379Z,71.83
2019-02-19T02:51:59.512Z,71.36
2019-02-19T02:52:25.619Z,72.02
2019-02-19T02:52:51.719Z,72.02
2019-02-19T02:53:17.814Z,71.83
2019-02-19T02:53:43.943Z,71.83
2019-02-19T02:54:10.032Z,72.31
2019-02-19T02:54:36.143Z,72.31
2019-02-19T02:55:02.259Z,72.02
2019-02-19T02:55:28.442Z,72.02
2019-02-19T02:55:54.537Z,71.93
2019-02-19T02:56:20.646Z,71.93
2019-02-19T02:56:46.780Z,72.31
2019-02-19T02:57:12.885Z,72.5
2019-02-19T02:57:38.987Z,72.69
2019-02-19T02:58:05.097Z,72.88
2019-02-19T02:58:31.201Z,72.41
2019-02-19T02:58:57.318Z,72.5
2019-02-19T02:59:23.437Z,72.5
2019-02-19T02:59:49.582Z,72.41
2019-02-19T03:00:15.699Z,72.5
2019-02-19T03:00:41.820Z,72.69
2019-02-19T03:01:07.925Z,72.88
2019-02-19T03:01:34.036Z,72.88
2019-02-19T03:02:00.137Z,72.88
2019-02-19T03:02:26.250Z,72.88
2019-02-19T03:02:52.357Z,72.21
2019-02-19T03:03:18.484Z,72.69
2019-02-19T03:03:44.623Z,72.5
2019-02-19T03:04:10.741Z,72.31
2019-02-19T03:04:36.836Z,72.78
2019-02-19T03:05:02.945Z,72.78
2019-02-19T03:05:30.131Z,72.31
2019-02-19T03:05:56.262Z,72.31
2019-02-19T03:06:22.374Z,72.5
2019-02-19T03:06:48.502Z,72.31
2019-02-19T03:07:14.609Z,72.5
2019-02-19T03:07:40.724Z,72.31
2019-02-19T03:08:06.885Z,72.5
2019-02-19T03:08:32.996Z,72.78
2019-02-19T03:08:59.104Z,72.6
2019-02-19T03:09:25.235Z,72.5
2019-02-19T03:09:51.362Z,72.5
2019-02-19T03:10:17.472Z,72.88
2019-02-19T03:10:43.607Z,72.88
2019-02-19T03:11:09.711Z,72.69
2019-02-19T03:11:35.811Z,72.78
2019-02-19T03:12:01.986Z,72.88
2019-02-19T03:12:28.088Z,72.34
2019-02-19T03:12:54.220Z,72.63
2019-02-19T03:13:20.322Z,72.25
2019-02-19T03:13:46.435Z,73.07
2019-02-19T03:14:12.544Z,72.92
2019-02-19T03:14:38.648Z,72.82
2019-02-19T03:15:04.755Z,73.3
2019-02-19T03:15:30.886Z,73.07
2019-02-19T03:16:02.348Z,72.88
2019-02-19T03:16:24.119Z,73.07
2019-02-19T03:16:50.224Z,73.36
2019-02-19T03:17:16.363Z,73.36
2019-02-19T03:17:42.467Z,73.26
2019-02-19T03:18:08.571Z,73.26
2019-02-19T03:18:34.676Z,73.26
2019-02-19T03:19:00.814Z,73.65
2019-02-19T03:19:26.915Z,73.83
2019-02-19T03:19:53.032Z,73.93
2019-02-19T03:20:19.165Z,73.65
2019-02-19T03:20:45.276Z,73.93
2019-02-19T03:21:11.387Z,73.74
2019-02-19T03:21:37.488Z,73.36
2019-02-19T03:22:03.631Z,73.55
2019-02-19T03:22:29.765Z,73.74
2019-02-19T03:22:55.867Z,73.65
2019-02-19T03:23:22.011Z,74.02
2019-02-19T03:23:48.144Z,73.93
2019-02-19T03:24:14.257Z,74.12
2019-02-19T03:24:40.384Z,74.4
2019-02-19T03:25:06.469Z,74.21
2019-02-19T03:25:32.603Z,74.21
2019-02-19T03:25:58.744Z,74.31
2019-02-19T03:26:24.839Z,74.31
2019-02-19T03:26:50.950Z,74.12
2019-02-19T03:27:17.085Z,74.12
2019-02-19T03:27:43.202Z,74.21
2019-02-19T03:28:09.329Z,74.12
2019-02-19T03:28:35.438Z,74.02
2019-02-19T03:29:01.575Z,74.12
2019-02-19T03:29:27.737Z,74.16
2019-02-19T03:29:53.865Z,73.93
2019-02-19T03:30:20.044Z,74.12
2019-02-19T03:30:46.176Z,74.12
2019-02-19T03:31:12.279Z,74.6
2019-02-19T03:31:38.470Z,74.31
2019-02-19T03:32:04.613Z,74.06
2019-02-19T03:32:30.799Z,74.21
2019-02-19T03:32:56.939Z,74.31
2019-02-19T03:33:23.072Z,73.93
2019-02-19T03:33:49.209Z,74.12
2019-02-19T03:34:15.341Z,74.44
2019-02-19T03:34:41.448Z,74.31
2019-02-19T03:35:07.552Z,75.01
2019-02-19T03:35:33.658Z,74.79
2019-02-19T03:35:59.768Z,74.79
2019-02-19T03:36:25.871Z,74.69
2019-02-19T03:36:51.978Z,74.79
2019-02-19T03:37:18.109Z,75.16
2019-02-19T03:37:44.231Z,74.92
2019-02-19T03:38:10.354Z,75.16
2019-02-19T03:38:36.482Z,75.2
2019-02-19T03:39:02.585Z,74.88
2019-02-19T03:39:28.695Z,74.73
2019-02-19T03:39:54.799Z,74.88
2019-02-19T03:40:21.918Z,75.26
2019-02-19T03:40:48.022Z,75.4
2019-02-19T03:41:14.127Z,75.26
2019-02-19T03:41:40.232Z,74.98
2019-02-19T03:42:06.340Z,75.36
2019-02-19T03:42:32.461Z,75.59
2019-02-19T03:42:58.544Z,75.68
2019-02-19T03:43:24.657Z,75.68
2019-02-19T03:43:50.788Z,76.21
2019-02-19T03:44:16.928Z,75.4
2019-02-19T03:44:43.059Z,75.68
2019-02-19T03:45:09.200Z,75.78
2019-02-19T03:45:35.309Z,75.4
2019-02-19T03:46:01.416Z,75.36
2019-02-19T03:46:30.382Z,75.96
2019-02-19T03:46:55.640Z,75.78
2019-02-19T03:47:21.747Z,75.4
2019-02-19T03:47:47.884Z,75.96
2019-02-19T03:48:13.992Z,75.4
2019-02-19T03:48:40.152Z,75.59
2019-02-19T03:49:06.313Z,75.3
2019-02-19T03:49:32.423Z,75.84
2019-02-19T03:49:58.565Z,75.74
2019-02-19T03:50:24.664Z,75.64
2019-02-19T03:50:50.778Z,76.25
2019-02-19T03:51:16.936Z,76.06
2019-02-19T03:51:43.046Z,75.93
2019-02-19T03:52:09.182Z,75.87
2019-02-19T03:52:35.322Z,76.35
2019-02-19T03:53:01.456Z,76.44
2019-02-19T03:53:27.556Z,76.64
2019-02-19T03:53:53.674Z,76.73
2019-02-19T03:54:19.779Z,76.64
2019-02-19T03:54:45.920Z,76.69
2019-02-19T03:55:12.020Z,76.92
2019-02-19T03:55:38.156Z,76.73
2019-02-19T03:56:04.261Z,76.54
2019-02-19T03:56:30.367Z,76.73
2019-02-19T03:56:56.466Z,77.26
2019-02-19T03:57:22.578Z,77.01
2019-02-19T03:57:48.679Z,77.2
2019-02-19T03:58:14.783Z,77.49
2019-02-19T03:58:40.893Z,77.4
2019-02-19T03:59:07.005Z,77.17
2019-02-19T03:59:33.108Z,77.69
2019-02-19T03:59:59.248Z,77.78
2019-02-19T04:00:25.414Z,78.22
2019-02-19T04:00:51.511Z,78.22
2019-02-19T04:01:17.642Z,78.25
2019-02-19T04:01:43.791Z,78.69
2019-02-19T04:02:09.927Z,78.78
2019-02-19T04:02:36.030Z,78.69
2019-02-19T04:03:02.160Z,78.78
2019-02-19T04:03:28.291Z,79.36
2019-02-19T04:03:54.401Z,79.46
2019-02-19T04:04:20.531Z,79.64
2019-02-19T04:04:46.640Z,79.36
2019-02-19T04:05:12.783Z,79.46
2019-02-19T04:05:38.923Z,79.07
2019-02-19T04:06:05.032Z,79.74
2019-02-19T04:06:32.441Z,79.46
2019-02-19T04:06:57.383Z,79.55
2019-02-19T04:07:23.490Z,79.83
2019-02-19T04:07:49.615Z,79.74
2019-02-19T04:08:15.720Z,79.93
2019-02-19T04:08:41.823Z,79.83
2019-02-19T04:09:07.925Z,80.22
2019-02-19T04:09:34.036Z,80.88
2019-02-19T04:10:00.252Z,80.31
2019-02-19T04:10:26.313Z,80.88
2019-02-19T04:10:52.426Z,80.41
2019-02-19T04:11:18.525Z,80.41
2019-02-19T04:11:44.634Z,80.41
2019-02-19T04:12:10.769Z,80.69
2019-02-19T04:12:36.944Z,80.5
2019-02-19T04:13:03.003Z,80.12
2019-02-19T04:13:29.139Z,80.5
2019-02-19T04:13:55.244Z,80.98
2019-02-19T04:14:21.380Z,80.79
2019-02-19T04:14:47.483Z,81.07
2019-02-19T04:15:13.596Z,80.69
2019-02-19T04:15:39.726Z,81.07
2019-02-19T04:16:05.890Z,80.79
2019-02-19T04:16:33.023Z,81.46
2019-02-19T04:16:59.409Z,81.93
2019-02-19T04:17:25.522Z,81.74
2019-02-19T04:17:51.625Z,81.55
2019-02-19T04:18:17.759Z,81.55
2019-02-19T04:18:43.861Z,81.17
2019-02-19T04:19:09.997Z,82.03
2019-02-19T04:19:36.102Z,82.12
2019-02-19T04:20:02.208Z,81.93
2019-02-19T04:20:28.328Z,82.69
2019-02-19T04:20:54.439Z,81.74
2019-02-19T04:21:20.544Z,81.93
2019-02-19T04:21:46.659Z,81.84
2019-02-19T04:22:12.786Z,82.12
2019-02-19T04:22:38.904Z,82.12
2019-02-19T04:23:05.005Z,82.41
2019-02-19T04:23:31.141Z,82.03
2019-02-19T04:23:57.274Z,82.03
2019-02-19T04:24:23.388Z,82.6
2019-02-19T04:24:49.486Z,82.79
2019-02-19T04:25:15.597Z,82.6
2019-02-19T04:25:41.731Z,82.79
2019-02-19T04:26:07.846Z,82.89
2019-02-19T04:26:34.938Z,83.45
2019-02-19T04:27:01.068Z,83.26
2019-02-19T04:27:27.201Z,82.98
2019-02-19T04:27:53.303Z,83.07
2019-02-19T04:28:19.415Z,83.36
2019-02-19T04:28:45.515Z,83.07
2019-02-19T04:29:11.646Z,82.98
2019-02-19T04:29:37.747Z,82.98
2019-02-19T04:30:03.853Z,82.98
2019-02-19T04:30:29.957Z,82.98
2019-02-19T04:30:56.071Z,83.36
2019-02-19T04:31:22.209Z,83.17
2019-02-19T04:31:48.340Z,82.98
2019-02-19T04:32:14.505Z,82.98
2019-02-19T04:32:40.610Z,83.36
2019-02-19T04:33:06.720Z,83.74
2019-02-19T04:33:32.832Z,83.03
2019-02-19T04:33:58.961Z,83.36
2019-02-19T04:34:25.071Z,83.7
2019-02-19T04:34:51.177Z,83.74
2019-02-19T04:35:17.274Z,83.74
2019-02-19T04:35:43.388Z,83.55
2019-02-19T04:36:09.527Z,83.17
2019-02-19T04:36:35.629Z,83.36
2019-02-19T04:37:01.736Z,83.36
2019-02-19T04:37:29.848Z,83.65
2019-02-19T04:37:54.937Z,83.65
2019-02-19T04:38:21.050Z,84.12
2019-02-19T04:38:47.150Z,83.74
2019-02-19T04:39:13.271Z,83.93
2019-02-19T04:39:39.396Z,83.74
2019-02-19T04:40:05.528Z,83.84
2019-02-19T04:40:31.635Z,83.55
2019-02-19T04:40:57.741Z,83.7
2019-02-19T04:41:23.869Z,83.65
2019-02-19T04:41:49.983Z,83.61
2019-02-19T04:42:16.093Z,84.27
2019-02-19T04:42:42.239Z,84.17
2019-02-19T04:43:08.372Z,84.22
2019-02-19T04:43:34.490Z,84.12
2019-02-19T04:44:00.599Z,84.22
2019-02-19T04:44:26.704Z,84.22
2019-02-19T04:44:52.837Z,84.03
2019-02-19T04:45:18.965Z,84.41
2019-02-19T04:45:45.078Z,84.36
2019-02-19T04:46:11.178Z,84.12
2019-02-19T04:46:39.327Z,84.31
2019-02-19T04:47:05.497Z,83.93
2019-02-19T04:47:31.633Z,84.03
2019-02-19T04:47:57.759Z,84.31
2019-02-19T04:48:23.920Z,84.12
2019-02-19T04:48:50.033Z,84.22
2019-02-19T04:49:16.128Z,83.93
2019-02-19T04:49:42.243Z,83.74
2019-02-19T04:50:08.398Z,83.84
2019-02-19T04:50:34.552Z,83.84
2019-02-19T04:51:00.651Z,83.84
2019-02-19T04:51:26.783Z,84.12
2019-02-19T04:51:52.891Z,84.12
2019-02-19T04:52:18.999Z,84.5
2019-02-19T04:52:45.106Z,84.12
2019-02-19T04:53:11.211Z,84.41
2019-02-19T04:53:37.349Z,84.12
2019-02-19T04:54:03.485Z,84.41
2019-02-19T04:54:29.676Z,84.12
2019-02-19T04:54:55.786Z,84.03
2019-02-19T04:55:21.917Z,84.03
2019-02-19T04:55:48.017Z,83.74
2019-02-19T04:56:14.124Z,84.36
2019-02-19T04:56:40.224Z,84.08
2019-02-19T04:57:06.340Z,84.46
2019-02-19T04:57:32.443Z,84.36
2019-02-19T04:57:58.570Z,84.36
2019-02-19T04:58:24.676Z,84.65
2019-02-19T04:58:50.787Z,84.5
2019-02-19T04:59:16.888Z,84.6
2019-02-19T04:59:43.024Z,84.79
2019-02-19T05:00:09.161Z,84.79
2019-02-19T05:00:35.270Z,84.69
2019-02-19T05:01:01.376Z,84.88
2019-02-19T05:01:27.542Z,84.75
2019-02-19T05:01:53.646Z,84.75
2019-02-19T05:02:19.776Z,84.46
2019-02-19T05:02:45.885Z,85.03
2019-02-19T05:03:12.513Z,85.22
2019-02-19T05:03:38.626Z,85.13
2019-02-19T05:04:04.728Z,85.03
2019-02-19T05:04:30.860Z,85.03
2019-02-19T05:04:56.998Z,84.94
2019-02-19T05:05:23.104Z,84.84
2019-02-19T05:05:49.238Z,84.94
2019-02-19T05:06:15.373Z,84.94
2019-02-19T05:06:41.476Z,85.7
2019-02-19T05:07:07.613Z,85.22
2019-02-19T05:07:33.721Z,85.36
2019-02-19T05:07:59.855Z,85.32
2019-02-19T05:08:25.968Z,84.98
2019-02-19T05:08:52.070Z,85.13
2019-02-19T05:09:18.180Z,84.94
2019-02-19T05:09:44.290Z,85.03
2019-02-19T05:10:10.399Z,84.84
2019-02-19T05:10:36.503Z,84.75
2019-02-19T05:11:02.646Z,85.32
2019-02-19T05:11:28.776Z,85.6
2019-02-19T05:11:54.885Z,85.22
2019-02-19T05:12:21.017Z,85.22
2019-02-19T05:12:47.127Z,85.51
2019-02-19T05:13:13.228Z,85.8
2019-02-19T05:13:39.364Z,85.89
2019-02-19T05:14:05.484Z,85.41
2019-02-19T05:14:31.609Z,85.41
2019-02-19T05:14:57.707Z,85.22
2019-02-19T05:15:23.811Z,85.22
2019-02-19T05:15:49.921Z,85.27
2019-02-19T05:16:16.032Z,85.46
2019-02-19T05:16:44.122Z,85.8
2019-02-19T05:17:10.277Z,85.8
2019-02-19T05:17:37.327Z,85.6
2019-02-19T05:18:03.461Z,85.6
2019-02-19T05:18:29.595Z,85.6
2019-02-19T05:18:55.737Z,85.41
2019-02-19T05:19:21.844Z,85.41
2019-02-19T05:19:47.950Z,85.32
2019-02-19T05:20:14.052Z,85.22
2019-02-19T05:20:40.183Z,85.13
2019-02-19T05:21:06.299Z,85.8
2019-02-19T05:21:32.412Z,85.41
2019-02-19T05:21:58.568Z,85.51
2019-02-19T05:22:24.701Z,85.8
2019-02-19T05:22:50.815Z,85.8
2019-02-19T05:23:17.909Z,85.6
2019-02-19T05:23:44.025Z,85.6
2019-02-19T05:24:10.149Z,85.7
2019-02-19T05:24:36.290Z,85.89
2019-02-19T05:25:02.418Z,85.6
2019-02-19T05:25:28.548Z,85.7
2019-02-19T05:25:54.658Z,85.8
2019-02-19T05:26:20.756Z,85.8
2019-02-19T05:26:46.867Z,85.8
2019-02-19T05:27:12.977Z,85.8
2019-02-19T05:27:39.114Z,85.8
2019-02-19T05:28:05.253Z,85.41
2019-02-19T05:28:31.413Z,85.7
2019-02-19T05:28:57.546Z,85.6
2019-02-19T05:29:23.673Z,85.7
2019-02-19T05:29:49.784Z,85.6
2019-02-19T05:30:15.926Z,85.6
2019-02-19T05:30:43.074Z,85.7
2019-02-19T05:31:09.137Z,85.6
2019-02-19T05:31:35.242Z,85.41
2019-02-19T05:32:01.348Z,85.8
2019-02-19T05:32:27.453Z,85.6
2019-02-19T05:32:53.589Z,85.8
2019-02-19T05:33:19.777Z,85.7
2019-02-19T05:33:45.876Z,85.6
2019-02-19T05:34:12.045Z,85.8
2019-02-19T05:34:38.176Z,85.6
2019-02-19T05:35:04.285Z,85.7
2019-02-19T05:35:30.415Z,85.99
2019-02-19T05:35:56.514Z,85.89
2019-02-19T05:36:23.644Z,85.7
2019-02-19T05:36:49.757Z,85.8
2019-02-19T05:37:15.863Z,85.6
2019-02-19T05:37:41.995Z,85.7
2019-02-19T05:38:08.105Z,85.46
2019-02-19T05:38:34.207Z,85.89